»·PEaware :: N32590 KOSH-KOSH

N32590 :: KOSH-KOSH

FLIGHT INFORMATION

Flight Status: Arrived
Operator: Privately registered:
United States
More flights under this callsign
Pilot: Mitchell F. (26966)
Aircraft: PIPER PA-28 CHEROKEE ARCHER
(PA28)
More flights by this aircraft type
Origin: KOSH Wittman Regl
United States
Destination: KOSH Wittman Regl
United States
More flights between these airports :: More routes between these airports
Route: null
File this flight plan on PilotEdge
Remarks:
Altitude:
(Current/Filed)
null
Speed:
(Current/Filed)
0kts
Departed: 25-Jul-20 01:40 PM
Arrived: 25-Jul-20 02:26 PM
Distance/Time
Traveled:
0nm/0:45
Distance/Time
To Go:
Arrived

Flight Plot

Page will automatically refresh every two minutes.

Flight plan parsing failed; only flown route is shown


Map Options




Map Legend


Flown Route
Filed Route
Departure Airport
Arrival Airport
Navaid (VOR, NDB)
Fix

Horizontal Profiles

Position Reports

Time Latitude Longitude Heading Altitude Ground
Speed
25-Jul-20 13:38 44.536006 -89.475244 119 3322ft 94kts
25-Jul-20 13:40 44.515250 -89.436224 126 3835ft 120kts
25-Jul-20 13:41 44.492048 -89.401505 135 3798ft 123kts
25-Jul-20 13:41 44.470495 -89.375907 148 3804ft 123kts
25-Jul-20 13:43 44.439172 -89.341611 141 3767ft 123kts
25-Jul-20 13:44 44.416423 -89.306162 132 3722ft 122kts
25-Jul-20 13:44 44.399440 -89.274406 131 3678ft 123kts
25-Jul-20 13:45 44.367696 -89.259797 178 3610ft 123kts
25-Jul-20 13:47 44.328161 -89.257602 179 3568ft 122kts
25-Jul-20 13:47 44.300070 -89.253076 169 3541ft 121kts
25-Jul-20 13:49 44.261034 -89.243269 163 3756ft 123kts
25-Jul-20 13:49 44.233304 -89.234342 172 3759ft 121kts
25-Jul-20 13:50 44.199262 -89.229825 165 3615ft 123kts
25-Jul-20 13:51 44.166598 -89.215608 156 3810ft 121kts
25-Jul-20 13:52 44.135021 -89.196008 158 3778ft 123kts
25-Jul-20 13:53 44.103393 -89.176728 151 3609ft 124kts
25-Jul-20 13:54 44.073397 -89.152919 147 3586ft 124kts
25-Jul-20 13:55 44.043788 -89.128362 146 3532ft 125kts
25-Jul-20 13:56 44.014860 -89.102767 147 3514ft 124kts
25-Jul-20 13:57 43.985517 -89.077921 151 3563ft 123kts
25-Jul-20 13:58 43.954977 -89.056383 153 3596ft 124kts
25-Jul-20 13:59 43.923955 -89.035443 153 3573ft 124kts
25-Jul-20 14:00 43.891095 -89.022005 176 3382ft 125kts
25-Jul-20 14:01 43.856610 -89.021686 178 3204ft 123kts
25-Jul-20 14:02 43.829435 -89.027093 220 3138ft 81kts
25-Jul-20 14:03 43.821610 -89.058491 257 3049ft 88kts
25-Jul-20 14:04 43.801967 -89.075909 179 2472ft 95kts
25-Jul-20 14:05 43.778764 -89.062932 123 2148ft 92kts
25-Jul-20 14:06 43.780123 -89.028963 70 1863ft 89kts
25-Jul-20 14:07 43.789054 -88.997589 64 1835ft 86kts
25-Jul-20 14:08 43.798955 -88.967880 63 1869ft 86kts
25-Jul-20 14:09 43.809418 -88.938334 68 1769ft 86kts
25-Jul-20 14:10 43.819204 -88.908150 65 1827ft 85kts
25-Jul-20 14:11 43.829981 -88.878760 61 1827ft 86kts
25-Jul-20 14:12 43.841235 -88.849356 58 1822ft 84kts
25-Jul-20 14:13 43.855027 -88.822499 52 1793ft 85kts
25-Jul-20 14:14 43.870471 -88.797328 52 1767ft 85kts
25-Jul-20 14:15 43.884598 -88.770808 49 1766ft 82kts
25-Jul-20 14:16 43.900654 -88.746256 45 1825ft 84kts
25-Jul-20 14:17 43.918555 -88.724469 37 1806ft 84kts
25-Jul-20 14:18 43.937414 -88.704571 40 1764ft 84kts
25-Jul-20 14:19 43.954779 -88.682240 47 1791ft 86kts
25-Jul-20 14:20 43.969562 -88.656057 55 1838ft 86kts
25-Jul-20 14:21 43.981087 -88.627280 63 1767ft 84kts
25-Jul-20 14:22 43.991744 -88.598388 60 1787ft 82kts
25-Jul-20 14:23 44.000136 -88.568897 85 1699ft 82kts
25-Jul-20 14:24 43.991593 -88.552278 248 1003ft 76kts
25-Jul-20 14:25 43.992057 -88.567697 289 811ft 13kts
25-Jul-20 14:26 43.991287 -88.572165 126 811ft 11kts
25-Jul-20 14:27 43.990668 -88.566128 124 811ft 23kts
25-Jul-20 14:28 43.990299 -88.564002 50 811ft 0kts
25-Jul-20 14:29 43.990301 -88.563998 50 811ft 0kts
25-Jul-20 14:30 43.990301 -88.563737 114 811ft 0kts
25-Jul-20 14:31 43.990309 -88.563368 67 811ft 6kts
25-Jul-20 14:32 43.990409 -88.558497 108 811ft 14kts
25-Jul-20 14:33 43.988035 -88.556438 219 811ft 9kts
25-Jul-20 14:34 43.984592 -88.557955 180 811ft 13kts
25-Jul-20 14:35 43.981076 -88.558037 183 811ft 16kts
25-Jul-20 14:36 43.977142 -88.558046 181 811ft 15kts
25-Jul-20 14:37 43.971324 -88.558152 179 811ft 20kts
25-Jul-20 14:38 43.967457 -88.557566 85 811ft 7kts
25-Jul-20 14:39 43.977312 -88.554503 46 1169ft 76kts

Navigation Log

Ident Type
Flight plan parsing failed, navigation log unavailable